Longkou, China
Current Conditions -  °F | °C
As of 1:00 PM on Saturday 22 Nov 2014 (Local Time) from ZSQD Reporting Station
Haze Haze  
Wind Chill: 63°   Ceiling: Unl
Heat Index: 63°   Visibility: 2.5mi
Dew Point: 28°   Wind: 11mph
Humidity: 27%   Direction: 60°ENE
Pressure: 30.24"   Gusts: NA
Location:  37.65°N, 120.33°E
Report Text: ZSQD 220500Z 06005MPS 010V090 4000 HZ NSC 17/M02 Q1024 NOSIG
Loading
Personal Weather Stations






























Interactive Weather Map New forecast layout! Learn more

10-Day Weather Forecast

Advertisements
Track Severe Weather on mobile